Time;durP1;ratioP1;P1;durP2;ratioP2;P2;SDS_P1;SDS_P2;PMS_P1;PMS_P2;Temp;Humidity;BMP_temperature;BMP_pressure;BME280_temperature;BME280_humidity;BME280_pressure;Samples;Min_cycle;Max_cycle;Signal;HPM_P1;HPM_P2
2021/07/08 00:00:33;;;;;;;15.67;14.37;;;15.80;92.60;;;;;;5111368;28;20050;-66
2021/07/08 00:03:02;;;;;;;17.87;16.13;;;15.80;92.50;;;;;;5112596;28;20389;-67
2021/07/08 00:05:28;;;;;;;17.30;15.60;;;15.80;92.60;;;;;;5112211;28;20586;-67
2021/07/08 00:07:59;;;;;;;18.80;16.93;;;15.70;92.60;;;;;;5111228;28;20096;-67
2021/07/08 00:10:31;;;;;;;18.40;16.45;;;15.60;92.70;;;;;;5111963;28;20065;-66
2021/07/08 00:12:58;;;;;;;19.37;17.40;;;15.60;92.90;;;;;;5112544;28;20072;-66
2021/07/08 00:15:25;;;;;;;19.13;17.23;;;15.60;92.90;;;;;;5110930;28;20090;-67
2021/07/08 00:17:50;;;;;;;16.30;14.80;;;15.60;93.00;;;;;;5112161;28;20195;-67
2021/07/08 00:20:19;;;;;;;18.73;16.77;;;15.60;93.10;;;;;;5111746;28;20366;-66
2021/07/08 00:22:45;;;;;;;17.73;16.00;;;15.60;93.10;;;;;;5111681;28;20055;-66
2021/07/08 00:25:14;;;;;;;16.80;15.20;;;15.60;93.10;;;;;;5111573;28;20043;-66
2021/07/08 00:27:41;;;;;;;19.00;17.10;;;15.60;93.10;;;;;;5111995;28;20063;-67
2021/07/08 00:30:08;;;;;;;16.17;14.50;;;15.50;93.10;;;;;;5111202;28;20048;-66
2021/07/08 00:32:35;;;;;;;16.23;14.60;;;15.50;93.20;;;;;;5111730;28;20416;-66
2021/07/08 00:35:01;;;;;;;15.30;13.70;;;15.50;93.20;;;;;;5111585;28;20452;-66
2021/07/08 00:37:27;;;;;;;16.80;15.20;;;15.50;93.20;;;;;;5110740;28;20138;-67
2021/07/08 00:39:53;;;;;;;15.00;13.70;;;15.50;93.20;;;;;;5111281;28;20122;-66
2021/07/08 00:42:18;;;;;;;15.30;13.80;;;15.50;93.10;;;;;;5111199;28;20044;-66
2021/07/08 00:44:45;;;;;;;14.50;13.00;;;15.50;93.10;;;;;;5110783;28;20040;-66
2021/07/08 00:47:11;;;;;;;16.80;15.03;;;15.50;93.10;;;;;;5111067;28;20138;-66
2021/07/08 00:49:37;;;;;;;16.10;14.50;;;15.40;93.10;;;;;;5110973;28;20119;-66
2021/07/08 00:52:03;;;;;;;15.20;13.60;;;15.40;93.20;;;;;;5111735;28;20043;-66
2021/07/08 00:54:29;;;;;;;16.80;15.20;;;15.40;93.30;;;;;;5111561;28;20422;-66
2021/07/08 00:56:54;;;;;;;17.20;15.40;;;15.40;93.40;;;;;;5110901;28;20059;-66
2021/07/08 00:59:20;;;;;;;13.23;12.03;;;15.40;93.50;;;;;;5111132;28;20153;-66
2021/07/08 01:01:47;;;;;;;14.40;13.10;;;15.40;93.50;;;;;;5111320;28;20044;-66
2021/07/08 01:04:14;;;;;;;15.37;13.83;;;15.40;93.50;;;;;;5110917;28;20043;-66
2021/07/08 01:06:46;;;;;;;16.17;14.67;;;15.40;93.60;;;;;;5111290;28;20492;-67
2021/07/08 01:09:13;;;;;;;15.97;14.37;;;15.40;93.70;;;;;;5111467;28;20148;-67
2021/07/08 01:11:39;;;;;;;14.63;13.33;;;15.40;93.70;;;;;;5110983;28;20048;-67
2021/07/08 01:14:06;;;;;;;16.57;14.97;;;15.40;93.60;;;;;;5111247;28;20165;-67
2021/07/08 01:16:33;;;;;;;13.87;12.60;;;15.40;93.60;;;;;;5110838;28;20139;-67
2021/07/08 01:18:58;;;;;;;15.00;13.00;;;15.40;93.50;;;;;;5111018;28;20478;-65
2021/07/08 01:21:33;;;;;;;15.97;13.87;;;15.40;93.50;;;;;;5111190;28;20079;-65
2021/07/08 01:24:02;;;;;;;14.77;13.30;;;15.40;93.50;;;;;;5111412;28;20047;-65
2021/07/08 01:26:28;;;;;;;16.60;14.73;;;15.30;93.40;;;;;;5110439;28;20432;-65
2021/07/08 01:29:02;;;;;;;14.70;13.30;;;15.30;93.50;;;;;;5111436;28;20147;-65
2021/07/08 01:31:28;;;;;;;15.00;13.40;;;15.20;93.50;;;;;;5111089;28;20126;-65
2021/07/08 01:33:54;;;;;;;16.63;14.97;;;15.20;93.50;;;;;;5110432;28;20052;-65
2021/07/08 01:36:20;;;;;;;15.30;13.67;;;15.10;93.60;;;;;;5110941;28;20134;-65
2021/07/08 01:38:46;;;;;;;16.53;15.03;;;15.10;93.60;;;;;;5110621;28;20044;-65
2021/07/08 01:41:12;;;;;;;17.67;15.87;;;15.10;93.70;;;;;;5110629;28;20079;-65
2021/07/08 01:43:40;;;;;;;17.17;15.60;;;15.10;93.70;;;;;;5110931;28;20428;-66
2021/07/08 01:46:07;;;;;;;17.03;15.23;;;15.10;93.80;;;;;;5110922;28;20154;-65
2021/07/08 01:48:34;;;;;;;16.87;15.37;;;15.10;93.80;;;;;;5111262;28;20082;-66
2021/07/08 01:51:05;;;;;;;15.77;14.33;;;15.10;93.80;;;;;;5111762;28;20048;-65
2021/07/08 01:53:31;;;;;;;19.33;17.40;;;15.10;93.80;;;;;;5113902;27;20099;-66
2021/07/08 01:55:57;;;;;;;17.53;15.83;;;15.10;93.80;;;;;;5114766;28;20141;-65
2021/07/08 01:58:26;;;;;;;18.10;16.40;;;15.10;93.90;;;;;;5114171;28;20130;-66
2021/07/08 02:00:53;;;;;;;18.63;16.90;;;15.10;94.00;;;;;;5113761;28;20560;-65
2021/07/08 02:03:19;;;;;;;20.93;18.80;;;15.10;94.00;;;;;;5114516;28;20048;-65
2021/07/08 02:05:45;;;;;;;21.27;19.27;;;15.10;94.00;;;;;;5114728;28;20066;-65
2021/07/08 02:08:11;;;;;;;19.10;17.03;;;15.10;94.10;;;;;;5113340;28;20048;-66
2021/07/08 02:10:37;;;;;;;22.37;18.07;;;15.20;94.10;;;;;;5114260;28;20044;-66
2021/07/08 02:13:03;;;;;;;20.20;18.17;;;15.10;94.10;;;;;;5114943;28;20043;-65
2021/07/08 02:15:29;;;;;;;18.50;16.23;;;15.20;94.20;;;;;;5112060;28;20047;-66
2021/07/08 02:17:55;;;;;;;18.03;16.17;;;15.10;94.20;;;;;;5114092;28;20124;-65
2021/07/08 02:20:20;;;;;;;21.83;19.73;;;15.10;94.10;;;;;;5113943;28;20066;-65
2021/07/08 02:22:47;;;;;;;18.80;17.13;;;15.10;94.20;;;;;;5113696;28;20047;-66
2021/07/08 02:25:14;;;;;;;18.33;16.53;;;15.10;94.20;;;;;;5113715;28;20073;-66
2021/07/08 02:27:41;;;;;;;17.70;15.70;;;15.10;94.20;;;;;;5114464;28;20050;-66
2021/07/08 02:30:12;;;;;;;16.23;14.77;;;15.10;94.20;;;;;;5113132;28;20050;-66
2021/07/08 02:32:39;;;;;;;;;;;15.10;94.30;;;;;;5114824;28;20051;-66
2021/07/08 02:35:08;;;;;;;17.30;15.57;;;15.00;94.10;;;;;;5113179;28;19919;-66
2021/07/08 02:37:35;;;;;;;21.80;19.50;;;15.00;94.20;;;;;;5113406;27;20047;-66
2021/07/08 02:40:02;;;;;;;18.33;16.40;;;15.00;94.20;;;;;;5113886;28;20074;-66
2021/07/08 02:42:28;;;;;;;18.20;16.50;;;15.00;94.20;;;;;;5112644;28;20464;-66
2021/07/08 02:44:54;;;;;;;17.17;15.47;;;14.90;94.20;;;;;;5113761;28;20047;-66
2021/07/08 02:47:20;;;;;;;17.70;15.90;;;14.90;94.20;;;;;;5113189;28;20135;-66
2021/07/08 02:49:45;;;;;;;17.50;15.80;;;14.80;94.20;;;;;;5113014;28;20040;-66
2021/07/08 02:52:11;;;;;;;18.23;16.57;;;14.70;94.40;;;;;;5112877;28;20512;-66
2021/07/08 02:54:37;;;;;;;19.20;17.30;;;14.70;94.50;;;;;;5113348;28;20051;-66
2021/07/08 02:57:03;;;;;;;18.17;16.53;;;14.70;94.60;;;;;;5112657;28;20054;-66
2021/07/08 02:59:28;;;;;;;22.90;17.73;;;14.60;94.60;;;;;;5113227;28;20487;-66
2021/07/08 03:01:54;;;;;;;20.80;18.90;;;14.60;94.70;;;;;;5112976;28;20055;-66
2021/07/08 03:04:20;;;;;;;20.13;18.07;;;14.60;94.70;;;;;;5112183;28;20050;-66
2021/07/08 03:06:46;;;;;;;18.77;16.90;;;14.60;94.70;;;;;;5113360;28;20134;-66
2021/07/08 03:09:11;;;;;;;18.73;16.87;;;14.60;94.70;;;;;;5113169;28;20047;-66
2021/07/08 03:11:37;;;;;;;17.97;16.13;;;14.60;94.70;;;;;;5112427;28;20531;-66
2021/07/08 03:14:03;;;;;;;17.00;15.37;;;14.60;94.70;;;;;;5113052;28;20052;-66
2021/07/08 03:16:28;;;;;;;16.67;15.00;;;14.60;94.60;;;;;;5112448;28;20495;-67
2021/07/08 03:18:57;;;;;;;18.60;16.80;;;14.60;94.60;;;;;;5112306;28;20075;-67
2021/07/08 03:21:23;;;;;;;19.37;17.37;;;14.60;94.50;;;;;;5112542;28;20075;-67
2021/07/08 03:23:49;;;;;;;17.33;15.70;;;14.60;94.50;;;;;;5113118;28;20048;-66
2021/07/08 03:26:14;;;;;;;17.60;15.90;;;14.60;94.50;;;;;;5111852;28;20067;-67
2021/07/08 03:28:40;;;;;;;17.77;16.17;;;14.60;94.50;;;;;;5112760;28;20123;-67
2021/07/08 03:31:06;;;;;;;16.57;15.10;;;14.50;94.50;;;;;;5112653;28;20040;-67
2021/07/08 03:33:32;;;;;;;16.67;14.77;;;14.60;94.40;;;;;;5111511;28;20062;-66
2021/07/08 03:35:58;;;;;;;15.63;14.23;;;14.50;94.40;;;;;;5112213;28;20073;-67
2021/07/08 03:38:24;;;;;;;16.57;14.97;;;14.50;94.40;;;;;;5111474;28;20547;-66
2021/07/08 03:40:50;;;;;;;17.90;16.27;;;14.50;94.30;;;;;;5112512;28;20069;-66
2021/07/08 03:43:15;;;;;;;19.40;17.60;;;14.50;94.30;;;;;;5112286;28;20139;-67
2021/07/08 03:45:41;;;;;;;18.60;16.60;;;14.50;94.40;;;;;;5111384;28;20741;-67
2021/07/08 03:48:07;;;;;;;18.27;16.43;;;14.50;94.50;;;;;;5112211;28;20395;-67
2021/07/08 03:50:32;;;;;;;16.57;14.87;;;14.50;94.50;;;;;;5111717;28;20055;-66
2021/07/08 03:52:58;;;;;;;16.13;14.53;;;14.50;94.50;;;;;;5111830;28;20053;-66
2021/07/08 03:55:25;;;;;;;16.13;14.67;;;14.50;94.50;;;;;;5111854;28;20139;-66
2021/07/08 03:57:53;;;;;;;16.83;15.03;;;14.40;94.40;;;;;;5112086;28;20623;-66
2021/07/08 04:00:32;;;;;;;18.07;16.20;;;14.40;94.40;;;;;;5111137;28;20048;-66
2021/07/08 04:03:03;;;;;;;17.13;15.40;;;14.40;94.40;;;;;;5111817;28;20534;-66
2021/07/08 04:05:29;;;;;;;16.50;15.10;;;14.40;94.40;;;;;;5111762;28;20119;-66
2021/07/08 04:07:55;;;;;;;15.87;14.27;;;14.40;94.30;;;;;;5111370;28;20113;-66
2021/07/08 04:10:21;;;;;;;17.37;14.80;;;14.50;94.30;;;;;;5111892;28;20480;-66
2021/07/08 04:12:47;;;;;;;16.67;15.20;;;14.50;94.30;;;;;;5112126;28;20054;-66
2021/07/08 04:15:13;;;;;;;17.17;15.67;;;14.50;94.30;;;;;;5110039;28;20480;-66
2021/07/08 04:17:38;;;;;;;19.17;17.23;;;14.50;94.30;;;;;;5111930;28;20063;-66
2021/07/08 04:20:10;;;;;;;18.67;16.90;;;14.50;94.30;;;;;;5111829;28;20050;-66
2021/07/08 04:22:36;;;;;;;17.67;15.70;;;14.50;94.30;;;;;;5111088;28;20095;-66
2021/07/08 04:25:03;;;;;;;19.03;17.13;;;14.50;94.50;;;;;;5111970;28;20069;-66
2021/07/08 04:27:30;;;;;;;22.03;19.93;;;14.50;94.60;;;;;;5111438;28;20446;-66
2021/07/08 04:29:56;;;;;;;23.03;20.83;;;14.50;94.70;;;;;;5110857;28;20126;-66
2021/07/08 04:32:22;;;;;;;22.00;19.13;;;14.50;94.80;;;;;;5111577;28;20141;-66
2021/07/08 04:34:47;;;;;;;21.57;19.37;;;14.60;94.90;;;;;;5111090;28;20052;-65
2021/07/08 04:37:17;;;;;;;21.60;19.30;;;14.60;94.90;;;;;;5111480;28;20048;-65
2021/07/08 04:39:45;;;;;;;20.87;18.97;;;14.70;95.00;;;;;;5111716;28;20047;-66
2021/07/08 04:42:11;;;;;;;19.70;16.90;;;14.70;94.90;;;;;;5110614;28;20095;-65
2021/07/08 04:44:37;;;;;;;18.10;16.27;;;14.70;94.90;;;;;;5111312;28;20044;-66
2021/07/08 04:47:04;;;;;;;17.03;15.43;;;14.70;94.90;;;;;;5111580;28;20100;-66
2021/07/08 04:49:30;;;;;;;15.63;14.23;;;14.80;95.20;;;;;;5110683;28;20043;-65
2021/07/08 04:51:56;;;;;;;15.70;14.20;;;14.90;95.20;;;;;;5111380;28;20055;-66
2021/07/08 04:54:21;;;;;;;16.50;15.00;;;15.00;94.90;;;;;;5111048;28;20059;-65
2021/07/08 04:56:47;;;;;;;16.50;15.10;;;15.00;94.80;;;;;;5110561;28;20456;-65
2021/07/08 04:59:13;;;;;;;17.20;15.50;;;15.00;94.80;;;;;;5110942;28;20043;-66
2021/07/08 05:01:38;;;;;;;17.90;16.10;;;15.00;94.90;;;;;;5111674;28;20051;-66
2021/07/08 05:04:04;;;;;;;19.77;17.77;;;15.00;94.90;;;;;;5110689;28;20052;-66
2021/07/08 05:06:30;;;;;;;18.93;17.00;;;15.00;95.00;;;;;;5110587;28;20433;-66
2021/07/08 05:08:55;;;;;;;20.07;18.13;;;15.00;95.10;;;;;;5110812;28;20476;-65
2021/07/08 05:11:22;;;;;;;20.53;18.53;;;15.00;95.10;;;;;;5110197;28;20052;-65
2021/07/08 05:13:47;;;;;;;20.57;18.67;;;15.00;95.10;;;;;;5110834;28;20047;-65
2021/07/08 05:16:13;;;;;;;20.03;18.23;;;15.10;95.50;;;;;;5110906;28;20135;-65
2021/07/08 05:18:38;;;;;;;21.37;19.37;;;15.10;95.20;;;;;;5110416;28;20484;-66
2021/07/08 05:21:04;;;;;;;20.90;18.90;;;15.10;95.30;;;;;;5111363;28;20070;-66
2021/07/08 05:23:32;;;;;;;21.20;19.10;;;15.20;95.30;;;;;;5110789;28;20456;-66
2021/07/08 05:25:57;;;;;;;19.37;17.47;;;15.30;95.30;;;;;;5112494;28;20043;-66
2021/07/08 05:28:23;;;;;;;19.30;17.50;;;15.30;95.20;;;;;;5114443;28;20052;-66
2021/07/08 05:30:49;;;;;;;17.77;16.07;;;15.40;95.10;;;;;;5115028;28;20502;-66
2021/07/08 05:33:14;;;;;;;20.93;18.50;;;15.40;95.00;;;;;;5114156;28;20104;-66
2021/07/08 05:35:40;;;;;;;21.23;18.93;;;15.50;95.00;;;;;;5114556;28;20393;-66
2021/07/08 05:38:07;;;;;;;18.07;16.47;;;15.50;94.90;;;;;;5113820;28;20047;-66
2021/07/08 05:40:32;;;;;;;18.73;16.27;;;15.60;95.00;;;;;;5114455;28;20073;-66
2021/07/08 05:42:58;;;;;;;19.57;17.50;;;15.80;95.00;;;;;;5114540;28;20043;-66
2021/07/08 05:45:24;;;;;;;15.43;14.03;;;15.90;94.80;;;;;;5113755;28;20044;-66
2021/07/08 05:47:50;;;;;;;14.63;13.07;;;16.00;94.60;;;;;;5114857;28;20075;-66
2021/07/08 05:50:16;;;;;;;13.87;12.57;;;16.10;94.50;;;;;;5113939;28;20557;-65
2021/07/08 05:52:41;;;;;;;16.50;14.83;;;16.10;94.50;;;;;;5113817;28;20047;-66
2021/07/08 05:55:08;;;;;;;17.93;16.10;;;16.20;94.60;;;;;;5114564;28;20052;-66
2021/07/08 05:57:33;;;;;;;18.07;15.73;;;16.20;94.50;;;;;;5113678;28;20522;-65
2021/07/08 05:59:59;;;;;;;18.43;16.63;;;16.30;94.50;;;;;;5113803;28;20043;-66
2021/07/08 06:02:25;;;;;;;19.30;16.93;;;16.40;94.50;;;;;;5114263;28;20055;-65
2021/07/08 06:04:50;;;;;;;19.70;17.43;;;16.50;94.30;;;;;;5114216;28;20084;-65
2021/07/08 06:07:16;;;;;;;18.53;16.93;;;16.60;94.30;;;;;;5113513;28;20050;-65
2021/07/08 06:09:42;;;;;;;19.63;17.70;;;16.70;94.30;;;;;;5108286;28;20126;-65
2021/07/08 06:12:07;;;;;;;19.10;17.10;;;16.90;94.10;;;;;;5110240;28;20048;-66
2021/07/08 06:14:33;;;;;;;19.40;17.43;;;17.00;93.80;;;;;;5103043;28;20062;-65
2021/07/08 06:17:01;;;;;;;19.07;17.27;;;17.10;93.60;;;;;;5107821;28;20058;-66
2021/07/08 06:19:26;;;;;;;18.87;17.07;;;17.20;93.50;;;;;;5110370;28;20068;-66
2021/07/08 06:21:52;;;;;;;18.47;16.53;;;17.30;93.40;;;;;;5110224;28;20089;-64
2021/07/08 06:24:18;;;;;;;17.90;16.00;;;17.30;93.40;;;;;;5109956;28;20040;-64
2021/07/08 06:26:44;;;;;;;19.13;16.87;;;17.40;93.30;;;;;;5110377;28;20158;-65
2021/07/08 06:29:10;;;;;;;18.07;16.17;;;17.50;93.20;;;;;;5109160;28;20455;-65
2021/07/08 06:31:35;;;;;;;18.27;14.80;;;17.60;93.20;;;;;;5110959;28;20044;-64
2021/07/08 06:34:01;;;;;;;15.10;13.27;;;17.70;93.20;;;;;;5109555;28;20150;-66
2021/07/08 06:36:27;;;;;;;14.47;12.77;;;17.80;93.00;;;;;;5108071;28;20097;-66
2021/07/08 06:38:53;;;;;;;13.73;12.17;;;18.00;92.60;;;;;;5110077;28;20063;-65
2021/07/08 06:41:19;;;;;;;14.83;11.50;;;18.20;92.30;;;;;;5109563;27;20119;-65
2021/07/08 06:43:45;;;;;;;12.83;11.57;;;18.40;91.90;;;;;;5110165;28;20044;-64
2021/07/08 06:46:16;;;;;;;12.17;10.80;;;18.50;91.80;;;;;;5109377;28;20043;-65
2021/07/08 06:48:42;;;;;;;;;;;18.60;91.50;;;;;;5109479;28;20129;-64
2021/07/08 06:51:08;;;;;;;13.37;11.90;;;18.70;91.40;;;;;;5109815;28;20407;-64
2021/07/08 06:53:33;;;;;;;12.23;9.50;;;18.90;91.50;;;;;;5109937;28;20407;-65
2021/07/08 06:55:59;;;;;;;12.57;10.57;;;19.00;91.70;;;;;;5108738;28;20134;-63
2021/07/08 06:58:25;;;;;;;10.13;8.93;;;19.10;91.30;;;;;;5109850;28;20692;-64
2021/07/08 07:00:50;;;;;;;12.00;8.57;;;19.20;91.00;;;;;;5109527;28;20058;-64
2021/07/08 07:03:16;;;;;;;13.53;9.80;;;19.30;90.60;;;;;;5107663;28;20108;-64
2021/07/08 07:05:41;;;;;;;12.00;10.77;;;19.40;90.30;;;;;;5108098;28;20394;-64
2021/07/08 07:08:07;;;;;;;13.33;10.43;;;19.50;90.30;;;;;;5109705;28;20051;-66
2021/07/08 07:10:33;;;;;;;12.40;10.73;;;19.60;90.20;;;;;;5108116;28;20127;-65
2021/07/08 07:13:00;;;;;;;13.93;10.83;;;19.70;90.00;;;;;;5109106;27;20127;-65
2021/07/08 07:15:28;;;;;;;13.07;11.53;;;19.80;90.00;;;;;;5109368;28;20079;-65
2021/07/08 07:17:54;;;;;;;13.37;10.97;;;19.80;89.50;;;;;;5108670;28;20083;-66
2021/07/08 07:20:20;;;;;;;15.73;12.00;;;19.70;89.40;;;;;;5112041;28;20043;-66
2021/07/08 07:22:47;;;;;;;14.37;11.17;;;19.80;89.20;;;;;;5111053;28;20100;-66
2021/07/08 07:25:22;;;;;;;16.60;12.40;;;19.80;89.00;;;;;;5109671;28;20075;-65
2021/07/08 07:27:52;;;;;;;13.73;12.30;;;19.80;88.60;;;;;;5112748;28;20043;-66
2021/07/08 07:30:19;;;;;;;14.83;13.30;;;19.80;88.50;;;;;;5112881;28;20093;-65
2021/07/08 07:32:45;;;;;;;14.50;13.20;;;19.80;88.10;;;;;;5112089;28;20044;-66
2021/07/08 07:35:12;;;;;;;17.03;13.17;;;19.90;87.90;;;;;;5112459;28;20044;-65
2021/07/08 07:37:37;;;;;;;15.53;13.10;;;19.90;87.90;;;;;;5111930;28;20056;-65
2021/07/08 07:40:05;;;;;;;15.03;12.67;;;19.90;87.70;;;;;;5111852;28;20116;-65
2021/07/08 07:42:31;;;;;;;12.93;11.10;;;19.90;87.20;;;;;;5112095;28;20092;-66
2021/07/08 07:44:57;;;;;;;14.97;12.13;;;19.90;87.00;;;;;;5109605;28;20047;-65
2021/07/08 07:47:24;;;;;;;13.80;12.37;;;19.90;86.40;;;;;;5109596;28;20373;-65
2021/07/08 07:49:50;;;;;;;14.27;12.77;;;19.90;86.00;;;;;;5112476;28;20044;-65
2021/07/08 07:52:16;;;;;;;13.57;11.70;;;20.00;85.70;;;;;;5110848;28;20048;-66
2021/07/08 07:54:42;;;;;;;15.53;14.03;;;19.90;85.70;;;;;;5112228;28;20395;-65
2021/07/08 07:57:08;;;;;;;15.07;13.60;;;20.00;85.70;;;;;;5112276;28;20055;-65
2021/07/08 07:59:35;;;;;;;17.53;15.50;;;20.00;85.80;;;;;;5110816;28;20139;-65
2021/07/08 08:02:01;;;;;;;15.37;13.60;;;20.10;85.60;;;;;;5110606;27;20059;-66
2021/07/08 08:04:32;;;;;;;17.00;14.43;;;20.10;85.60;;;;;;5110605;28;20135;-66
2021/07/08 08:09:42;;;;;;;16.23;13.97;;;20.20;85.80;;;;;;5110872;28;20098;-66
2021/07/08 08:12:09;;;;;;;14.30;12.57;;;20.20;85.40;;;;;;5110863;28;20508;-66
2021/07/08 08:14:35;;;;;;;16.20;11.83;;;20.30;84.90;;;;;;5110241;28;20112;-67
2021/07/08 08:17:02;;;;;;;14.83;10.73;;;20.30;84.00;;;;;;5111850;28;20047;-66
2021/07/08 08:19:28;;;;;;;14.33;10.27;;;20.40;83.30;;;;;;5111839;28;20624;-66
2021/07/08 08:21:54;;;;;;;11.97;10.77;;;20.70;82.60;;;;;;5111334;28;20058;-66
2021/07/08 08:24:19;;;;;;;16.50;11.20;;;20.90;81.90;;;;;;5111696;28;20139;-66
2021/07/08 08:26:50;;;;;;;14.13;9.90;;;21.10;81.60;;;;;;5111288;28;20051;-66
2021/07/08 08:29:16;;;;;;;12.85;9.35;;;21.10;81.00;;;;;;5110739;28;20063;-67
2021/07/08 08:31:42;;;;;;;12.83;9.10;;;21.30;81.10;;;;;;5111898;28;20164;-66
2021/07/08 08:34:07;;;;;;;13.63;9.87;;;21.40;80.10;;;;;;5110626;28;20048;-66
2021/07/08 08:36:33;;;;;;;11.53;8.70;;;21.40;79.00;;;;;;5111301;28;20043;-66
2021/07/08 08:38:58;;;;;;;11.57;7.40;;;21.50;78.40;;;;;;5111330;28;20044;-66
2021/07/08 08:41:25;;;;;;;11.75;7.85;;;21.60;77.10;;;;;;5110843;28;20055;-68
2021/07/08 08:43:50;;;;;;;9.77;8.23;;;21.60;75.90;;;;;;5111697;28;20043;-66
2021/07/08 08:46:16;;;;;;;10.95;8.43;;;21.60;75.60;;;;;;5110642;28;20059;-66
2021/07/08 08:48:42;;;;;;;10.77;8.40;;;21.60;76.10;;;;;;5110954;28;20460;-66
2021/07/08 08:51:07;;;;;;;11.55;7.32;;;21.80;76.90;;;;;;5111235;28;20048;-66
2021/07/08 08:53:33;;;;;;;9.82;6.95;;;22.10;76.20;;;;;;5111190;28;20052;-67
2021/07/08 08:55:59;;;;;;;11.85;7.35;;;22.20;74.50;;;;;;5110281;28;20496;-66
2021/07/08 08:58:25;;;;;;;9.32;6.35;;;22.30;73.10;;;;;;5110911;28;20051;-66
2021/07/08 09:00:55;;;;;;;9.13;6.05;;;22.30;71.90;;;;;;5113118;28;20480;-66
2021/07/08 09:03:26;;;;;;;9.20;6.57;;;22.30;70.80;;;;;;5114769;28;20048;-66
2021/07/08 09:06:04;;;;;;;9.47;5.90;;;22.30;70.10;;;;;;5116196;28;20504;-66
2021/07/08 09:08:29;;;;;;;9.25;6.55;;;22.40;69.90;;;;;;5115019;28;20857;-66
2021/07/08 09:11:01;;;;;;;11.65;6.65;;;22.40;69.80;;;;;;5114631;28;20182;-66
2021/07/08 09:13:44;;;;;;;8.85;5.80;;;22.40;69.30;;;;;;5114669;28;20146;-66
2021/07/08 09:16:24;;;;;;;9.07;6.22;;;22.50;69.10;;;;;;5113720;27;20155;-66
2021/07/08 09:19:13;;;;;;;8.13;5.43;;;22.50;68.90;;;;;;5114995;28;20376;-66
2021/07/08 09:21:48;;;;;;;9.00;6.68;;;22.50;67.00;;;;;;5115359;28;20411;-66
2021/07/08 09:24:24;;;;;;;9.25;5.68;;;22.60;67.30;;;;;;5113920;28;20051;-66
2021/07/08 09:26:58;;;;;;;8.50;5.25;;;22.60;67.20;;;;;;5114664;27;20596;-68
2021/07/08 09:29:26;;;;;;;8.18;5.43;;;22.50;67.20;;;;;;5114364;28;20069;-66
2021/07/08 09:32:07;;;;;;;7.25;5.47;;;22.60;67.90;;;;;;5113677;28;20096;-66
2021/07/08 09:34:34;;;;;;;9.40;5.18;;;22.90;68.50;;;;;;5114512;28;20078;-66
2021/07/08 09:37:06;;;;;;;8.30;6.15;;;23.20;68.60;;;;;;5114072;28;20043;-66
2021/07/08 09:39:50;;;;;;;10.85;5.78;;;23.40;68.10;;;;;;5114256;28;20132;-66
2021/07/08 09:42:37;;;;;;;8.73;5.65;;;23.60;67.40;;;;;;5114138;28;20105;-66
2021/07/08 09:45:10;;;;;;;7.32;5.53;;;23.50;65.90;;;;;;5113670;28;20044;-66
2021/07/08 09:47:41;;;;;;;10.50;5.00;;;23.40;66.00;;;;;;5114476;28;20051;-67
2021/07/08 09:50:31;;;;;;;8.07;5.05;;;23.30;66.10;;;;;;5114433;28;20048;-66
2021/07/08 09:53:04;;;;;;;7.78;5.68;;;23.20;66.20;;;;;;5113460;28;20119;-66
2021/07/08 09:55:56;;;;;;;8.68;5.40;;;23.00;66.00;;;;;;5114013;28;20048;-66
2021/07/08 09:58:21;;;;;;;8.57;5.20;;;23.00;65.70;;;;;;5113023;28;20052;-66
2021/07/08 10:00:47;;;;;;;6.35;5.00;;;22.90;65.60;;;;;;5114111;28;20058;-66
2021/07/08 10:03:13;;;;;;;8.95;5.18;;;22.90;65.60;;;;;;5113838;28;20044;-66
2021/07/08 10:05:39;;;;;;;8.10;5.28;;;22.90;65.70;;;;;;5113446;28;20074;-66
2021/07/08 10:08:07;;;;;;;10.20;5.63;;;23.00;64.80;;;;;;5113671;28;20437;-66
2021/07/08 10:10:33;;;;;;;8.48;5.43;;;23.00;64.60;;;;;;5113079;28;20416;-66
2021/07/08 10:12:59;;;;;;;8.63;5.57;;;22.90;64.40;;;;;;5112087;27;20048;-66
2021/07/08 10:15:32;;;;;;;8.40;5.40;;;22.90;64.50;;;;;;5113047;28;20456;-66
2021/07/08 10:17:59;;;;;;;6.47;4.70;;;22.90;64.30;;;;;;5113797;28;20058;-66
2021/07/08 10:20:25;;;;;;;8.80;5.20;;;22.90;64.50;;;;;;5112537;28;20055;-66
2021/07/08 10:22:51;;;;;;;7.18;5.15;;;23.10;64.70;;;;;;5113458;28;20379;-66
2021/07/08 10:25:17;;;;;;;11.40;5.47;;;23.20;65.20;;;;;;5113049;28;20036;-66
2021/07/08 10:27:45;;;;;;;8.68;5.28;;;23.30;64.10;;;;;;5112927;28;20126;-66
2021/07/08 10:30:13;;;;;;;8.32;5.30;;;23.40;63.90;;;;;;5112833;28;20092;-67
2021/07/08 10:32:39;;;;;;;8.25;6.07;;;23.30;63.50;;;;;;5113102;27;20155;-66
2021/07/08 10:35:06;;;;;;;12.27;5.57;;;23.20;63.90;;;;;;5109475;28;20084;-67
2021/07/08 10:37:36;;;;;;;9.25;5.60;;;23.10;64.50;;;;;;5113168;28;20052;-66
2021/07/08 10:40:05;;;;;;;7.15;5.97;;;23.00;65.00;;;;;;5113331;28;20051;-66
2021/07/08 10:42:45;;;;;;;7.93;5.22;;;22.90;65.20;;;;;;5112144;28;20454;-67
2021/07/08 10:45:38;;;;;;;7.72;5.15;;;22.80;64.70;;;;;;5112606;28;20055;-66
2021/07/08 10:48:23;;;;;;;8.02;5.55;;;22.70;65.20;;;;;;5112631;28;20073;-66
2021/07/08 10:50:49;;;;;;;8.20;5.93;;;22.70;65.00;;;;;;5112989;28;20112;-66
2021/07/08 10:53:16;;;;;;;9.18;5.55;;;22.70;64.70;;;;;;5112561;28;20397;-67
2021/07/08 10:55:44;;;;;;;7.35;5.50;;;22.60;65.60;;;;;;5112238;28;20412;-67
2021/07/08 10:58:49;;;;;;;8.23;4.93;;;22.60;65.00;;;;;;5112463;28;20054;-66
2021/07/08 11:01:21;;;;;;;7.57;5.18;;;22.60;64.90;;;;;;5112456;27;20104;-66
2021/07/08 11:03:51;;;;;;;10.55;5.20;;;22.70;65.30;;;;;;5111806;28;20148;-66
2021/07/08 11:06:35;;;;;;;10.05;4.82;;;22.80;65.10;;;;;;5112392;28;20039;-66
2021/07/08 11:09:21;;;;;;;8.27;5.13;;;22.90;64.20;;;;;;5112159;28;20051;-66
2021/07/08 11:11:48;;;;;;;8.98;6.25;;;22.90;63.70;;;;;;5112638;28;20044;-66
2021/07/08 11:14:16;;;;;;;8.90;5.70;;;23.00;64.50;;;;;;5112037;28;20043;-66
2021/07/08 11:16:58;;;;;;;7.28;5.13;;;23.10;64.00;;;;;;5111554;28;20063;-67
2021/07/08 11:19:24;;;;;;;9.68;5.13;;;23.20;63.70;;;;;;5105767;28;20044;-66
2021/07/08 11:21:53;;;;;;;9.82;5.22;;;23.30;62.70;;;;;;5109428;28;20044;-66
2021/07/08 11:24:41;;;;;;;7.03;5.05;;;23.30;62.40;;;;;;5107638;28;20764;-65
2021/07/08 11:27:08;;;;;;;7.05;5.00;;;23.20;61.70;;;;;;5108702;28;20052;-67
2021/07/08 11:29:41;;;;;;;8.55;4.95;;;23.10;63.00;;;;;;5108271;28;20626;-67
2021/07/08 11:32:43;;;;;;;7.13;4.55;;;23.30;62.70;;;;;;5109216;28;20595;-67
2021/07/08 11:35:37;;;;;;;7.85;4.45;;;23.50;62.10;;;;;;5108796;28;20071;-67
2021/07/08 11:38:15;;;;;;;7.63;4.53;;;23.70;61.80;;;;;;5108293;28;20047;-67
2021/07/08 11:40:49;;;;;;;8.35;4.82;;;23.80;60.90;;;;;;5108244;28;20040;-66
2021/07/08 11:43:33;;;;;;;5.25;4.00;;;23.70;60.40;;;;;;5107705;28;20059;-67
2021/07/08 11:46:10;;;;;;;8.07;4.78;;;23.60;61.50;;;;;;5107395;28;20092;-67
2021/07/08 11:48:41;;;;;;;13.63;4.55;;;23.40;61.20;;;;;;5108323;28;20130;-66
2021/07/08 11:51:29;;;;;;;10.88;4.65;;;23.30;61.50;;;;;;5107135;28;20661;-67
2021/07/08 11:53:56;;;;;;;9.23;4.55;;;23.20;61.40;;;;;;5107445;28;20090;-66
2021/07/08 11:56:23;;;;;;;6.90;5.15;;;23.20;61.90;;;;;;5108325;28;20043;-66
2021/07/08 11:58:50;;;;;;;8.32;4.80;;;23.10;62.30;;;;;;5108259;28;20163;-67
2021/07/08 12:01:19;;;;;;;8.02;5.22;;;23.10;62.80;;;;;;5108101;28;20100;-67
2021/07/08 12:03:50;;;;;;;9.45;5.28;;;23.00;62.10;;;;;;5108077;28;20118;-67
2021/07/08 12:06:20;;;;;;;11.57;5.13;;;23.00;61.70;;;;;;5106969;28;20157;-66
2021/07/08 12:08:58;;;;;;;10.32;5.10;;;22.90;62.30;;;;;;5108211;28;20043;-66
2021/07/08 12:11:40;;;;;;;9.63;4.47;;;23.10;62.10;;;;;;5107839;28;20052;-66
2021/07/08 12:14:13;;;;;;;8.13;4.90;;;23.20;62.50;;;;;;5107071;28;20047;-66
2021/07/08 12:16:48;;;;;;;7.70;4.88;;;23.30;62.70;;;;;;5107934;28;20056;-66
2021/07/08 12:19:22;;;;;;;8.35;5.15;;;23.30;63.00;;;;;;5107051;28;20393;-66
2021/07/08 12:21:50;;;;;;;9.27;5.65;;;23.20;62.90;;;;;;5108254;28;20047;-66
2021/07/08 12:24:27;;;;;;;8.32;4.95;;;23.30;62.50;;;;;;5107824;28;20050;-66
2021/07/08 12:26:55;;;;;;;7.45;4.95;;;23.20;62.40;;;;;;5107125;28;20139;-66
2021/07/08 12:29:36;;;;;;;7.43;4.85;;;23.30;63.10;;;;;;5107445;28;20085;-66
2021/07/08 12:32:09;;;;;;;6.88;5.65;;;23.40;62.70;;;;;;5111020;28;20051;-66
2021/07/08 12:34:45;;;;;;;6.72;4.88;;;23.40;61.80;;;;;;5110397;28;20472;-66
2021/07/08 12:37:23;;;;;;;7.78;5.28;;;23.30;62.40;;;;;;5110840;28;20051;-66
2021/07/08 12:40:19;;;;;;;10.50;4.72;;;23.10;62.60;;;;;;5110925;28;20751;-66
2021/07/08 12:42:48;;;;;;;7.75;4.80;;;23.00;63.30;;;;;;5109931;28;20067;-66